sensor_id;sensor_type;location;lat;lon;timestamp;pressure;altitude;pressure_sealevel;temperature;humidity
12215;BME280;6170;42.206;24.142;2024-02-15T00:01:04;99073.47;;;7.22;59.68
12215;BME280;6170;42.206;24.142;2024-02-15T00:03:31;99076.09;;;7.38;59.63
12215;BME280;6170;42.206;24.142;2024-02-15T00:05:58;99075.09;;;7.31;58.89
12215;BME280;6170;42.206;24.142;2024-02-15T00:08:25;99081.16;;;7.25;59.94
12215;BME280;6170;42.206;24.142;2024-02-15T00:10:52;99070.81;;;7.22;59.31
12215;BME280;6170;42.206;24.142;2024-02-15T00:13:20;99065.22;;;7.09;59.47
12215;BME280;6170;42.206;24.142;2024-02-15T00:15:48;99074.63;;;7.28;59.40
12215;BME280;6170;42.206;24.142;2024-02-15T00:18:15;99235.84;;;8.18;59.16
12215;BME280;6170;42.206;24.142;2024-02-15T00:20:42;99071.84;;;7.21;59.10
12215;BME280;6170;42.206;24.142;2024-02-15T00:23:10;99070.81;;;7.22;59.35
12215;BME280;6170;42.206;24.142;2024-02-15T00:25:37;99040.63;;;6.99;59.32
12215;BME280;6170;42.206;24.142;2024-02-15T00:28:04;99055.38;;;7.09;59.57
12215;BME280;6170;42.206;24.142;2024-02-15T00:30:34;99087.13;;;7.27;59.06
12215;BME280;6170;42.206;24.142;2024-02-15T00:33:01;99239.56;;;8.08;59.75
12215;BME280;6170;42.206;24.142;2024-02-15T00:35:28;99230.69;;;8.16;60.64
12215;BME280;6170;42.206;24.142;2024-02-15T00:37:55;99086.88;;;7.06;60.45
12215;BME280;6170;42.206;24.142;2024-02-15T00:40:22;99230.94;;;7.98;60.36
12215;BME280;6170;42.206;24.142;2024-02-15T00:42:49;99023.88;;;6.90;59.29
12215;BME280;6170;42.206;24.142;2024-02-15T00:45:16;99232.81;;;8.21;59.03
12215;BME280;6170;42.206;24.142;2024-02-15T00:47:44;99066.38;;;7.14;60.02
12215;BME280;6170;42.206;24.142;2024-02-15T00:50:11;99208.75;;;7.98;60.31
12215;BME280;6170;42.206;24.142;2024-02-15T00:52:38;99050.78;;;7.03;60.69
12215;BME280;6170;42.206;24.142;2024-02-15T00:55:05;99073.84;;;7.19;60.59
12215;BME280;6170;42.206;24.142;2024-02-15T00:57:32;99064.84;;;7.20;60.21
12215;BME280;6170;42.206;24.142;2024-02-15T00:59:59;99050.94;;;7.02;60.60
12215;BME280;6170;42.206;24.142;2024-02-15T01:02:27;99070.28;;;7.27;60.30
12215;BME280;6170;42.206;24.142;2024-02-15T01:04:56;99060.25;;;7.06;60.30
12215;BME280;6170;42.206;24.142;2024-02-15T01:07:24;99039.75;;;7.06;60.35
12215;BME280;6170;42.206;24.142;2024-02-15T01:09:53;99056.75;;;7.05;60.46
12215;BME280;6170;42.206;24.142;2024-02-15T01:12:20;99058.22;;;7.16;60.88
12215;BME280;6170;42.206;24.142;2024-02-15T01:14:47;99080.00;;;7.19;60.41
12215;BME280;6170;42.206;24.142;2024-02-15T01:17:15;99058.69;;;7.19;59.38
12215;BME280;6170;42.206;24.142;2024-02-15T01:19:42;99060.63;;;6.95;60.54
12215;BME280;6170;42.206;24.142;2024-02-15T01:22:10;99210.53;;;8.13;60.49
12215;BME280;6170;42.206;24.142;2024-02-15T01:24:38;99215.72;;;8.07;60.02
12215;BME280;6170;42.206;24.142;2024-02-15T01:27:05;98849.72;;;5.91;59.86
12215;BME280;6170;42.206;24.142;2024-02-15T01:29:32;99043.56;;;7.12;59.83
12215;BME280;6170;42.206;24.142;2024-02-15T01:31:59;99046.66;;;6.93;60.28
12215;BME280;6170;42.206;24.142;2024-02-15T01:34:27;99050.31;;;6.92;60.67
12215;BME280;6170;42.206;24.142;2024-02-15T01:36:54;99050.78;;;7.03;59.90
12215;BME280;6170;42.206;24.142;2024-02-15T01:39:22;99051.63;;;6.96;59.95
12215;BME280;6170;42.206;24.142;2024-02-15T01:41:49;99065.13;;;6.86;60.75
12215;BME280;6170;42.206;24.142;2024-02-15T01:44:17;99057.47;;;6.91;60.99
12215;BME280;6170;42.206;24.142;2024-02-15T01:46:47;99059.16;;;6.84;61.31
12215;BME280;6170;42.206;24.142;2024-02-15T01:49:15;98935.13;;;6.04;60.22
12215;BME280;6170;42.206;24.142;2024-02-15T01:51:42;99229.16;;;7.91;61.42
12215;BME280;6170;42.206;24.142;2024-02-15T01:54:10;99224.34;;;7.86;61.52
12215;BME280;6170;42.206;24.142;2024-02-15T01:56:39;98986.31;;;6.14;61.15
12215;BME280;6170;42.206;24.142;2024-02-15T01:59:07;99075.28;;;6.99;61.41
12215;BME280;6170;42.206;24.142;2024-02-15T02:01:34;99055.53;;;6.69;60.86
12215;BME280;6170;42.206;24.142;2024-02-15T02:04:01;99063.50;;;6.85;60.57
12215;BME280;6170;42.206;24.142;2024-02-15T02:06:28;99059.03;;;6.69;60.48
12215;BME280;6170;42.206;24.142;2024-02-15T02:08:56;99085.00;;;6.75;60.74
12215;BME280;6170;42.206;24.142;2024-02-15T02:11:24;99008.22;;;6.32;59.98
12215;BME280;6170;42.206;24.142;2024-02-15T02:13:52;99054.06;;;6.66;60.80
12215;BME280;6170;42.206;24.142;2024-02-15T02:16:26;99255.56;;;7.78;60.60
12215;BME280;6170;42.206;24.142;2024-02-15T02:18:54;99072.50;;;6.76;60.66
12215;BME280;6170;42.206;24.142;2024-02-15T02:21:22;99238.53;;;7.87;60.07
12215;BME280;6170;42.206;24.142;2024-02-15T02:23:53;99245.22;;;7.75;60.71
12215;BME280;6170;42.206;24.142;2024-02-15T02:26:24;99069.53;;;6.71;60.53
12215;BME280;6170;42.206;24.142;2024-02-15T02:28:51;99102.63;;;6.85;61.23
12215;BME280;6170;42.206;24.142;2024-02-15T02:31:19;99085.19;;;6.58;60.79
12215;BME280;6170;42.206;24.142;2024-02-15T02:33:49;99086.81;;;6.75;60.69
12215;BME280;6170;42.206;24.142;2024-02-15T02:36:17;99097.16;;;6.70;61.74
12215;BME280;6170;42.206;24.142;2024-02-15T02:38:44;99099.66;;;6.71;61.07
12215;BME280;6170;42.206;24.142;2024-02-15T02:41:15;99084.94;;;6.92;60.79
12215;BME280;6170;42.206;24.142;2024-02-15T02:43:44;99070.84;;;6.75;60.75
12215;BME280;6170;42.206;24.142;2024-02-15T02:46:11;99095.94;;;6.89;60.50
12215;BME280;6170;42.206;24.142;2024-02-15T02:48:38;99084.47;;;6.80;60.33
12215;BME280;6170;42.206;24.142;2024-02-15T02:51:06;99068.50;;;6.80;60.47
12215;BME280;6170;42.206;24.142;2024-02-15T02:53:34;99088.50;;;6.68;60.52
12215;BME280;6170;42.206;24.142;2024-02-15T02:56:01;99078.22;;;6.57;60.84
12215;BME280;6170;42.206;24.142;2024-02-15T02:58:29;99105.00;;;6.39;61.32
12215;BME280;6170;42.206;24.142;2024-02-15T03:00:58;99090.34;;;6.51;62.41
12215;BME280;6170;42.206;24.142;2024-02-15T03:03:26;99090.84;;;6.63;61.70
12215;BME280;6170;42.206;24.142;2024-02-15T03:05:52;99079.56;;;6.28;62.23
12215;BME280;6170;42.206;24.142;2024-02-15T03:08:20;99089.72;;;6.41;62.37
12215;BME280;6170;42.206;24.142;2024-02-15T03:10:48;99092.38;;;6.41;61.88
12215;BME280;6170;42.206;24.142;2024-02-15T03:13:14;99091.38;;;6.42;61.84
12215;BME280;6170;42.206;24.142;2024-02-15T03:15:44;99085.38;;;6.48;61.72
12215;BME280;6170;42.206;24.142;2024-02-15T03:18:14;99087.88;;;6.33;62.76
12215;BME280;6170;42.206;24.142;2024-02-15T03:20:41;99085.72;;;6.45;62.82
12215;BME280;6170;42.206;24.142;2024-02-15T03:23:09;99088.25;;;6.14;63.36
12215;BME280;6170;42.206;24.142;2024-02-15T03:25:36;99096.56;;;6.27;63.05
12215;BME280;6170;42.206;24.142;2024-02-15T03:28:04;99097.19;;;6.29;61.83
12215;BME280;6170;42.206;24.142;2024-02-15T03:30:31;99228.13;;;6.98;62.28
12215;BME280;6170;42.206;24.142;2024-02-15T03:32:59;99093.88;;;6.44;61.40
12215;BME280;6170;42.206;24.142;2024-02-15T03:35:28;99069.13;;;6.19;61.56
12215;BME280;6170;42.206;24.142;2024-02-15T03:37:57;99079.75;;;6.35;61.48
12215;BME280;6170;42.206;24.142;2024-02-15T03:40:24;99259.31;;;7.44;62.00
12215;BME280;6170;42.206;24.142;2024-02-15T03:42:52;99062.78;;;6.20;61.91
12215;BME280;6170;42.206;24.142;2024-02-15T03:45:19;99078.06;;;6.34;61.77
12215;BME280;6170;42.206;24.142;2024-02-15T03:47:46;99101.84;;;6.44;61.76
12215;BME280;6170;42.206;24.142;2024-02-15T03:50:15;99127.13;;;6.56;61.50
12215;BME280;6170;42.206;24.142;2024-02-15T03:52:45;99092.56;;;6.07;61.49
12215;BME280;6170;42.206;24.142;2024-02-15T03:55:12;99098.03;;;6.30;61.51
12215;BME280;6170;42.206;24.142;2024-02-15T03:57:40;99101.88;;;6.27;62.04
12215;BME280;6170;42.206;24.142;2024-02-15T04:00:09;99102.38;;;6.31;61.69
12215;BME280;6170;42.206;24.142;2024-02-15T04:02:38;99067.94;;;6.21;61.57
12215;BME280;6170;42.206;24.142;2024-02-15T04:05:07;99095.03;;;6.25;61.73
12215;BME280;6170;42.206;24.142;2024-02-15T04:07:34;99178.84;;;6.86;61.77
12215;BME280;6170;42.206;24.142;2024-02-15T04:10:06;99018.56;;;5.78;62.08
12215;BME280;6170;42.206;24.142;2024-02-15T04:12:33;99072.72;;;5.85;62.37
12215;BME280;6170;42.206;24.142;2024-02-15T04:15:00;99104.53;;;6.36;61.87
12215;BME280;6170;42.206;24.142;2024-02-15T04:17:31;99094.50;;;5.81;61.71
12215;BME280;6170;42.206;24.142;2024-02-15T04:20:00;99115.69;;;6.15;62.37
12215;BME280;6170;42.206;24.142;2024-02-15T04:22:29;99123.31;;;6.42;61.51
12215;BME280;6170;42.206;24.142;2024-02-15T04:24:57;99113.97;;;6.46;62.01
12215;BME280;6170;42.206;24.142;2024-02-15T04:27:25;99068.28;;;6.10;61.80
12215;BME280;6170;42.206;24.142;2024-02-15T04:29:52;99105.50;;;6.43;61.26
12215;BME280;6170;42.206;24.142;2024-02-15T04:32:21;99089.03;;;6.39;61.76
12215;BME280;6170;42.206;24.142;2024-02-15T04:34:48;99276.19;;;7.29;61.98
12215;BME280;6170;42.206;24.142;2024-02-15T04:37:14;99143.13;;;6.23;62.54
12215;BME280;6170;42.206;24.142;2024-02-15T04:39:42;99108.03;;;6.36;62.04
12215;BME280;6170;42.206;24.142;2024-02-15T04:42:09;99283.84;;;7.48;62.02
12215;BME280;6170;42.206;24.142;2024-02-15T04:44:39;99059.66;;;5.92;62.39
12215;BME280;6170;42.206;24.142;2024-02-15T04:47:06;99099.03;;;6.29;62.20
12215;BME280;6170;42.206;24.142;2024-02-15T04:49:34;99092.22;;;6.35;61.23
12215;BME280;6170;42.206;24.142;2024-02-15T04:52:04;99295.84;;;7.36;62.32
12215;BME280;6170;42.206;24.142;2024-02-15T04:54:32;99110.84;;;6.35;62.10
12215;BME280;6170;42.206;24.142;2024-02-15T04:56:59;99118.47;;;6.38;61.91
12215;BME280;6170;42.206;24.142;2024-02-15T04:59:26;99124.66;;;6.30;62.60
12215;BME280;6170;42.206;24.142;2024-02-15T05:01:56;99151.75;;;6.58;62.35
12215;BME280;6170;42.206;24.142;2024-02-15T05:04:23;99159.72;;;6.66;61.71
12215;BME280;6170;42.206;24.142;2024-02-15T05:06:50;99133.47;;;6.22;62.64
12215;BME280;6170;42.206;24.142;2024-02-15T05:09:18;99132.97;;;6.27;62.20
12215;BME280;6170;42.206;24.142;2024-02-15T05:11:45;99140.28;;;6.41;62.18
12215;BME280;6170;42.206;24.142;2024-02-15T05:14:14;99136.13;;;6.55;61.62
12215;BME280;6170;42.206;24.142;2024-02-15T05:16:45;99116.50;;;6.23;61.68
12215;BME280;6170;42.206;24.142;2024-02-15T05:19:14;99137.44;;;6.43;61.65
12215;BME280;6170;42.206;24.142;2024-02-15T05:21:42;99149.75;;;6.44;61.25
12215;BME280;6170;42.206;24.142;2024-02-15T05:24:10;99143.78;;;6.25;62.25
12215;BME280;6170;42.206;24.142;2024-02-15T05:26:39;99142.94;;;6.33;62.21
12215;BME280;6170;42.206;24.142;2024-02-15T05:29:08;99133.44;;;5.98;63.01
12215;BME280;6170;42.206;24.142;2024-02-15T05:31:35;99129.28;;;6.04;62.20
12215;BME280;6170;42.206;24.142;2024-02-15T05:34:04;99182.88;;;6.41;62.05
12215;BME280;6170;42.206;24.142;2024-02-15T05:36:34;99159.56;;;6.43;62.29
12215;BME280;6170;42.206;24.142;2024-02-15T05:39:01;99025.16;;;5.42;61.84
12215;BME280;6170;42.206;24.142;2024-02-15T05:41:30;99174.22;;;6.39;62.06
12215;BME280;6170;42.206;24.142;2024-02-15T05:43:57;99169.88;;;6.30;61.54
12215;BME280;6170;42.206;24.142;2024-02-15T05:46:24;99173.03;;;6.25;62.12
12215;BME280;6170;42.206;24.142;2024-02-15T05:48:53;99137.47;;;6.10;61.38
12215;BME280;6170;42.206;24.142;2024-02-15T05:51:21;99173.38;;;6.39;61.10
12215;BME280;6170;42.206;24.142;2024-02-15T05:53:49;99175.69;;;6.17;62.16
12215;BME280;6170;42.206;24.142;2024-02-15T05:56:19;99170.38;;;6.17;61.79
12215;BME280;6170;42.206;24.142;2024-02-15T05:58:46;99189.53;;;6.45;61.30
12215;BME280;6170;42.206;24.142;2024-02-15T06:01:13;99195.84;;;6.36;62.12
12215;BME280;6170;42.206;24.142;2024-02-15T06:03:40;99156.88;;;6.03;61.73
12215;BME280;6170;42.206;24.142;2024-02-15T06:06:09;99258.06;;;6.35;62.15
12215;BME280;6170;42.206;24.142;2024-02-15T06:08:37;99218.44;;;6.16;61.86
12215;BME280;6170;42.206;24.142;2024-02-15T06:11:05;99357.31;;;7.18;62.36
12215;BME280;6170;42.206;24.142;2024-02-15T06:13:32;99190.50;;;6.20;62.36
12215;BME280;6170;42.206;24.142;2024-02-15T06:16:00;99232.28;;;6.36;62.23
12215;BME280;6170;42.206;24.142;2024-02-15T06:18:28;99212.31;;;6.31;61.63
12215;BME280;6170;42.206;24.142;2024-02-15T06:20:57;99367.34;;;7.08;62.23
12215;BME280;6170;42.206;24.142;2024-02-15T06:23:25;99206.16;;;6.31;61.38
12215;BME280;6170;42.206;24.142;2024-02-15T06:25:54;99197.13;;;6.08;62.07
12215;BME280;6170;42.206;24.142;2024-02-15T06:28:23;99180.34;;;6.07;62.25
12215;BME280;6170;42.206;24.142;2024-02-15T06:31:04;99185.84;;;6.22;62.03
12215;BME280;6170;42.206;24.142;2024-02-15T06:33:48;99246.72;;;6.33;61.55
12215;BME280;6170;42.206;24.142;2024-02-15T06:36:32;99223.78;;;6.40;62.25
12215;BME280;6170;42.206;24.142;2024-02-15T06:39:31;99188.66;;;6.28;61.19
12215;BME280;6170;42.206;24.142;2024-02-15T06:42:07;99249.94;;;6.85;61.00
12215;BME280;6170;42.206;24.142;2024-02-15T06:44:36;99211.16;;;6.50;61.04
12215;BME280;6170;42.206;24.142;2024-02-15T06:47:04;99332.34;;;7.19;61.34
12215;BME280;6170;42.206;24.142;2024-02-15T06:49:31;99226.47;;;6.48;61.40
12215;BME280;6170;42.206;24.142;2024-02-15T06:51:58;99239.94;;;6.71;61.49
12215;BME280;6170;42.206;24.142;2024-02-15T06:54:27;99216.00;;;6.55;60.95
12215;BME280;6170;42.206;24.142;2024-02-15T06:56:54;99225.78;;;6.87;60.72
12215;BME280;6170;42.206;24.142;2024-02-15T06:59:21;99253.38;;;7.18;60.70
12215;BME280;6170;42.206;24.142;2024-02-15T07:01:50;99227.28;;;6.73;60.80
12215;BME280;6170;42.206;24.142;2024-02-15T07:04:17;99275.06;;;6.83;61.34
12215;BME280;6170;42.206;24.142;2024-02-15T07:06:44;99190.53;;;6.52;60.62
12215;BME280;6170;42.206;24.142;2024-02-15T07:09:13;99210.97;;;6.92;60.33
12215;BME280;6170;42.206;24.142;2024-02-15T07:11:43;99221.78;;;6.83;60.74
12215;BME280;6170;42.206;24.142;2024-02-15T07:14:11;99244.06;;;7.22;60.33
12215;BME280;6170;42.206;24.142;2024-02-15T07:16:38;99207.63;;;6.98;60.35
12215;BME280;6170;42.206;24.142;2024-02-15T07:19:07;99234.41;;;7.21;59.92
12215;BME280;6170;42.206;24.142;2024-02-15T07:21:34;99392.88;;;8.14;60.41
12215;BME280;6170;42.206;24.142;2024-02-15T07:24:01;99218.75;;;7.10;59.91
12215;BME280;6170;42.206;24.142;2024-02-15T07:26:30;99239.72;;;7.29;60.36
12215;BME280;6170;42.206;24.142;2024-02-15T07:28:58;99217.06;;;7.25;60.24
12215;BME280;6170;42.206;24.142;2024-02-15T07:31:28;99243.53;;;7.43;59.74
12215;BME280;6170;42.206;24.142;2024-02-15T07:33:55;99231.81;;;7.44;60.43
12215;BME280;6170;42.206;24.142;2024-02-15T07:36:24;99238.84;;;7.45;60.18
12215;BME280;6170;42.206;24.142;2024-02-15T07:38:53;99230.81;;;7.53;59.62
12215;BME280;6170;42.206;24.142;2024-02-15T07:41:23;99251.47;;;7.59;59.17
12215;BME280;6170;42.206;24.142;2024-02-15T07:43:50;99220.88;;;7.39;59.20
12215;BME280;6170;42.206;24.142;2024-02-15T07:46:19;99248.63;;;7.60;59.20
12215;BME280;6170;42.206;24.142;2024-02-15T07:48:47;99263.25;;;7.73;58.96
12215;BME280;6170;42.206;24.142;2024-02-15T07:51:15;99232.00;;;7.50;59.50
12215;BME280;6170;42.206;24.142;2024-02-15T07:53:45;99236.28;;;7.59;58.81
12215;BME280;6170;42.206;24.142;2024-02-15T07:56:12;99233.63;;;7.59;59.08
12215;BME280;6170;42.206;24.142;2024-02-15T07:58:40;99242.91;;;7.72;58.07
12215;BME280;6170;42.206;24.142;2024-02-15T08:01:08;99265.28;;;8.01;58.80
12215;BME280;6170;42.206;24.142;2024-02-15T08:03:35;99270.25;;;8.12;58.26
12215;BME280;6170;42.206;24.142;2024-02-15T08:06:03;99246.34;;;7.88;57.79
12215;BME280;6170;42.206;24.142;2024-02-15T08:08:33;99339.38;;;8.69;57.45
12215;BME280;6170;42.206;24.142;2024-02-15T08:11:03;99252.88;;;8.17;58.05
12215;BME280;6170;42.206;24.142;2024-02-15T08:13:30;99353.66;;;8.53;57.93
12215;BME280;6170;42.206;24.142;2024-02-15T08:15:57;99263.34;;;8.26;57.70
12215;BME280;6170;42.206;24.142;2024-02-15T08:18:24;99143.84;;;7.52;56.75
12215;BME280;6170;42.206;24.142;2024-02-15T08:20:51;99224.09;;;8.04;57.38
12215;BME280;6170;42.206;24.142;2024-02-15T08:23:18;99264.94;;;8.66;56.47
12215;BME280;6170;42.206;24.142;2024-02-15T08:25:45;99247.38;;;8.72;56.12
12215;BME280;6170;42.206;24.142;2024-02-15T08:28:13;99251.56;;;8.43;57.11
12215;BME280;6170;42.206;24.142;2024-02-15T08:30:40;99224.34;;;8.48;56.77
12215;BME280;6170;42.206;24.142;2024-02-15T08:33:07;99260.28;;;8.60;56.07
12215;BME280;6170;42.206;24.142;2024-02-15T08:35:36;99242.97;;;8.56;56.97
12215;BME280;6170;42.206;24.142;2024-02-15T08:38:05;99252.66;;;8.26;56.88
12215;BME280;6170;42.206;24.142;2024-02-15T08:40:32;99260.22;;;8.45;56.65
12215;BME280;6170;42.206;24.142;2024-02-15T08:43:00;99284.16;;;8.84;56.16
12215;BME280;6170;42.206;24.142;2024-02-15T08:45:29;99257.13;;;9.02;56.42
12215;BME280;6170;42.206;24.142;2024-02-15T08:47:56;99238.16;;;8.74;56.61
12215;BME280;6170;42.206;24.142;2024-02-15T08:50:23;99247.59;;;8.85;55.73
12215;BME280;6170;42.206;24.142;2024-02-15T08:52:49;99376.69;;;9.83;55.67
12215;BME280;6170;42.206;24.142;2024-02-15T08:55:17;99252.19;;;9.43;55.49
12215;BME280;6170;42.206;24.142;2024-02-15T08:57:46;99407.38;;;10.54;55.08
12215;BME280;6170;42.206;24.142;2024-02-15T09:00:13;99252.41;;;9.41;55.33
12215;BME280;6170;42.206;24.142;2024-02-15T09:02:43;99212.91;;;9.29;54.95
12215;BME280;6170;42.206;24.142;2024-02-15T09:05:10;99237.19;;;9.42;55.47
12215;BME280;6170;42.206;24.142;2024-02-15T09:07:40;99227.53;;;9.03;55.55
12215;BME280;6170;42.206;24.142;2024-02-15T09:10:08;99386.16;;;10.38;54.93
12215;BME280;6170;42.206;24.142;2024-02-15T09:12:37;99251.09;;;9.52;54.08
12215;BME280;6170;42.206;24.142;2024-02-15T09:15:06;99220.47;;;9.55;53.79
12215;BME280;6170;42.206;24.142;2024-02-15T09:17:34;99244.56;;;9.55;54.78
12215;BME280;6170;42.206;24.142;2024-02-15T09:20:07;99249.78;;;9.92;54.04
12215;BME280;6170;42.206;24.142;2024-02-15T09:22:39;99236.16;;;9.72;53.88
12215;BME280;6170;42.206;24.142;2024-02-15T09:25:08;99241.50;;;10.38;52.61
12215;BME280;6170;42.206;24.142;2024-02-15T09:27:35;99231.56;;;10.53;52.99
12215;BME280;6170;42.206;24.142;2024-02-15T09:30:02;99371.16;;;11.64;52.08
12215;BME280;6170;42.206;24.142;2024-02-15T09:32:33;99367.78;;;11.27;52.95
12215;BME280;6170;42.206;24.142;2024-02-15T09:35:01;99208.97;;;10.41;53.20
12215;BME280;6170;42.206;24.142;2024-02-15T09:37:29;99206.66;;;10.80;52.20
12215;BME280;6170;42.206;24.142;2024-02-15T09:39:58;99222.19;;;11.12;52.08
12215;BME280;6170;42.206;24.142;2024-02-15T09:42:30;99215.25;;;11.24;51.34
12215;BME280;6170;42.206;24.142;2024-02-15T09:44:59;99214.47;;;11.31;50.98
12215;BME280;6170;42.206;24.142;2024-02-15T09:47:29;99189.50;;;11.02;52.03
12215;BME280;6170;42.206;24.142;2024-02-15T09:49:59;99200.47;;;11.07;50.85
12215;BME280;6170;42.206;24.142;2024-02-15T09:52:28;99240.28;;;11.66;51.85
12215;BME280;6170;42.206;24.142;2024-02-15T09:54:57;99195.03;;;11.22;51.32
12215;BME280;6170;42.206;24.142;2024-02-15T09:57:25;99340.19;;;12.24;50.77
12215;BME280;6170;42.206;24.142;2024-02-15T09:59:54;99140.31;;;11.57;50.22
12215;BME280;6170;42.206;24.142;2024-02-15T10:02:20;99190.75;;;12.16;50.90
12215;BME280;6170;42.206;24.142;2024-02-15T10:04:48;99180.94;;;13.22;48.09
12215;BME280;6170;42.206;24.142;2024-02-15T10:07:16;99159.06;;;13.69;47.73
12215;BME280;6170;42.206;24.142;2024-02-15T10:09:45;99181.09;;;13.40;48.10
12215;BME280;6170;42.206;24.142;2024-02-15T10:12:12;99311.66;;;14.02;47.78
12215;BME280;6170;42.206;24.142;2024-02-15T10:14:39;99164.81;;;13.73;47.13
12215;BME280;6170;42.206;24.142;2024-02-15T10:17:15;99171.09;;;14.11;47.02
12215;BME280;6170;42.206;24.142;2024-02-15T10:19:42;99161.13;;;14.12;46.96
12215;BME280;6170;42.206;24.142;2024-02-15T10:22:10;99155.56;;;14.45;46.82
12215;BME280;6170;42.206;24.142;2024-02-15T10:24:40;99099.66;;;14.58;44.90
12215;BME280;6170;42.206;24.142;2024-02-15T10:27:09;99146.34;;;15.08;45.24
12215;BME280;6170;42.206;24.142;2024-02-15T10:29:36;99269.09;;;15.92;45.69
12215;BME280;6170;42.206;24.142;2024-02-15T10:32:06;99137.69;;;14.50;46.09
12215;BME280;6170;42.206;24.142;2024-02-15T10:34:43;99128.50;;;14.82;44.41
12215;BME280;6170;42.206;24.142;2024-02-15T10:37:11;99112.16;;;15.39;44.70
12215;BME280;6170;42.206;24.142;2024-02-15T10:39:38;99231.28;;;15.92;44.84
12215;BME280;6170;42.206;24.142;2024-02-15T10:42:07;99116.25;;;15.23;44.65
12215;BME280;6170;42.206;24.142;2024-02-15T10:44:38;99131.66;;;15.41;43.92
12215;BME280;6170;42.206;24.142;2024-02-15T10:47:07;99084.53;;;15.00;44.20
12215;BME280;6170;42.206;24.142;2024-02-15T10:49:34;99072.19;;;15.11;45.10
12215;BME280;6170;42.206;24.142;2024-02-15T10:52:04;99092.84;;;14.80;44.79
12215;BME280;6170;42.206;24.142;2024-02-15T10:54:40;99107.72;;;15.08;44.78
12215;BME280;6170;42.206;24.142;2024-02-15T10:57:10;99054.56;;;14.65;45.06
12215;BME280;6170;42.206;24.142;2024-02-15T10:59:46;99089.13;;;15.18;44.75
12215;BME280;6170;42.206;24.142;2024-02-15T11:02:27;99069.16;;;15.01;44.65
12215;BME280;6170;42.206;24.142;2024-02-15T11:05:01;99076.84;;;15.58;44.43
12215;BME280;6170;42.206;24.142;2024-02-15T11:07:29;99063.78;;;15.19;44.46
12215;BME280;6170;42.206;24.142;2024-02-15T11:09:57;99208.81;;;15.91;45.34
12215;BME280;6170;42.206;24.142;2024-02-15T11:12:26;99036.19;;;14.80;44.12
12215;BME280;6170;42.206;24.142;2024-02-15T11:14:55;99058.22;;;15.14;44.88
12215;BME280;6170;42.206;24.142;2024-02-15T11:17:47;99191.06;;;16.43;44.22
12215;BME280;6170;42.206;24.142;2024-02-15T11:20:50;99038.66;;;15.37;44.45
12215;BME280;6170;42.206;24.142;2024-02-15T11:23:25;99022.53;;;15.48;44.24
12215;BME280;6170;42.206;24.142;2024-02-15T11:25:56;99029.81;;;15.29;44.32
12215;BME280;6170;42.206;24.142;2024-02-15T11:28:38;99036.25;;;15.47;44.28
12215;BME280;6170;42.206;24.142;2024-02-15T11:31:09;99173.97;;;16.01;45.61
12215;BME280;6170;42.206;24.142;2024-02-15T11:33:37;99166.03;;;16.06;44.65
12215;BME280;6170;42.206;24.142;2024-02-15T11:36:06;99031.84;;;15.34;44.98
12215;BME280;6170;42.206;24.142;2024-02-15T11:38:34;99025.13;;;15.85;43.22
12215;BME280;6170;42.206;24.142;2024-02-15T11:41:04;99040.09;;;15.99;42.39
12215;BME280;6170;42.206;24.142;2024-02-15T11:43:49;99009.91;;;15.60;43.73
12215;BME280;6170;42.206;24.142;2024-02-15T11:46:17;99003.66;;;15.12;44.22
12215;BME280;6170;42.206;24.142;2024-02-15T11:48:45;99167.28;;;16.04;42.97
12215;BME280;6170;42.206;24.142;2024-02-15T11:51:28;99028.97;;;15.47;43.96
12215;BME280;6170;42.206;24.142;2024-02-15T11:54:03;99019.75;;;15.55;44.39
12215;BME280;6170;42.206;24.142;2024-02-15T11:59:17;99044.66;;;14.84;45.63
12215;BME280;6170;42.206;24.142;2024-02-15T12:01:56;98849.63;;;14.47;44.67
12215;BME280;6170;42.206;24.142;2024-02-15T12:04:40;99172.72;;;16.64;44.37
12215;BME280;6170;42.206;24.142;2024-02-15T12:07:25;99039.66;;;16.02;43.27
12215;BME280;6170;42.206;24.142;2024-02-15T12:10:15;99155.06;;;16.31;44.82
12215;BME280;6170;42.206;24.142;2024-02-15T12:12:59;99008.72;;;14.65;45.07
12215;BME280;6170;42.206;24.142;2024-02-15T12:15:56;98996.41;;;14.94;44.19
12215;BME280;6170;42.206;24.142;2024-02-15T12:18:42;99010.56;;;14.90;43.83
12215;BME280;6170;42.206;24.142;2024-02-15T12:21:13;99010.78;;;14.88;44.38
12215;BME280;6170;42.206;24.142;2024-02-15T12:23:41;99009.69;;;14.53;44.64
12215;BME280;6170;42.206;24.142;2024-02-15T12:26:08;99012.88;;;14.43;44.96
12215;BME280;6170;42.206;24.142;2024-02-15T12:28:35;98989.28;;;14.38;44.67
12215;BME280;6170;42.206;24.142;2024-02-15T12:31:02;99024.69;;;14.67;44.45
12215;BME280;6170;42.206;24.142;2024-02-15T12:33:33;98975.19;;;14.12;46.00
12215;BME280;6170;42.206;24.142;2024-02-15T12:36:08;99142.19;;;15.06;45.58
12215;BME280;6170;42.206;24.142;2024-02-15T12:38:35;98945.41;;;14.07;45.08
12215;BME280;6170;42.206;24.142;2024-02-15T12:41:04;98995.78;;;14.06;45.44
12215;BME280;6170;42.206;24.142;2024-02-15T12:43:31;98996.63;;;13.75;46.63
12215;BME280;6170;42.206;24.142;2024-02-15T12:45:58;99001.75;;;13.83;46.06
12215;BME280;6170;42.206;24.142;2024-02-15T12:48:25;99146.25;;;14.72;46.31
12215;BME280;6170;42.206;24.142;2024-02-15T12:50:52;99148.28;;;14.76;47.15
12215;BME280;6170;42.206;24.142;2024-02-15T12:53:24;98999.63;;;13.23;46.98
12215;BME280;6170;42.206;24.142;2024-02-15T12:55:55;99004.63;;;13.50;46.27
12215;BME280;6170;42.206;24.142;2024-02-15T12:58:22;98998.72;;;13.29;47.10
12215;BME280;6170;42.206;24.142;2024-02-15T13:00:54;98855.56;;;12.18;47.50
12215;BME280;6170;42.206;24.142;2024-02-15T13:03:24;99003.16;;;13.17;47.18
12215;BME280;6170;42.206;24.142;2024-02-15T13:05:51;98993.03;;;13.12;47.39
12215;BME280;6170;42.206;24.142;2024-02-15T13:08:18;98988.09;;;12.96;48.35
12215;BME280;6170;42.206;24.142;2024-02-15T13:10:46;98993.31;;;12.71;47.60
12215;BME280;6170;42.206;24.142;2024-02-15T13:13:14;98993.91;;;12.80;47.79
12215;BME280;6170;42.206;24.142;2024-02-15T13:15:41;98973.19;;;12.93;46.75
12215;BME280;6170;42.206;24.142;2024-02-15T13:18:09;98983.06;;;13.06;47.03
12215;BME280;6170;42.206;24.142;2024-02-15T13:20:36;98997.00;;;12.96;47.49